createdAt,value
2022-11-14T00:00:28.610Z,7.80
2022-11-14T00:03:02.842Z,7.80
2022-11-14T00:05:32.611Z,7.80
2022-11-14T00:08:02.482Z,7.80
2022-11-14T00:10:32.132Z,7.80
2022-11-14T00:13:01.676Z,7.80
2022-11-14T00:15:31.193Z,7.70
2022-11-14T00:18:03.311Z,7.70
2022-11-14T00:20:32.839Z,7.70
2022-11-14T00:23:02.342Z,7.70
2022-11-14T00:25:31.897Z,7.70
2022-11-14T00:28:01.582Z,7.70
2022-11-14T00:30:31.388Z,7.70
2022-11-14T00:33:03.483Z,7.70
2022-11-14T00:35:32.986Z,7.70
2022-11-14T00:38:02.476Z,7.70
2022-11-14T00:40:31.971Z,7.70
2022-11-14T00:43:01.463Z,7.70
2022-11-14T00:45:30.953Z,7.70
2022-11-14T00:48:03.192Z,7.70
2022-11-14T00:50:32.797Z,7.70
2022-11-14T00:53:02.260Z,7.70
2022-11-14T00:55:31.736Z,7.80
2022-11-14T00:58:01.204Z,7.80
2022-11-14T01:00:30.745Z,7.70
2022-11-14T01:03:02.815Z,7.70
2022-11-14T01:05:32.285Z,8.40
2022-11-14T01:08:02.084Z,7.60
2022-11-14T01:10:31.612Z,7.60
2022-11-14T01:13:01.092Z,7.60
2022-11-14T01:15:30.616Z,7.50
2022-11-14T01:18:00.097Z,7.40
2022-11-14T01:20:32.456Z,7.50
2022-11-14T01:23:01.953Z,7.40
2022-11-14T01:25:31.415Z,7.40
2022-11-14T01:28:00.886Z,7.30
2022-11-14T01:30:30.425Z,7.30
2022-11-14T01:32:59.897Z,7.20
2022-11-14T01:35:31.990Z,7.20
2022-11-14T01:38:01.493Z,7.20
2022-11-14T01:40:31.249Z,7.20
2022-11-14T01:43:23.786Z,7.10
2022-11-14T01:45:55.268Z,7.10
2022-11-14T01:48:28.208Z,7.10
2022-11-14T01:51:02.080Z,7.10
2022-11-14T01:53:31.728Z,7.00
2022-11-14T01:56:02.114Z,7.00
2022-11-14T01:58:32.538Z,7.00
2022-11-14T02:01:02.182Z,6.90
2022-11-14T02:03:31.704Z,6.90
2022-11-14T02:06:04.132Z,6.90
2022-11-14T02:08:34.251Z,6.90
2022-11-14T02:11:03.752Z,6.80
2022-11-14T02:13:33.257Z,6.90
2022-11-14T02:16:02.737Z,6.80
2022-11-14T02:18:32.492Z,5.40
2022-11-14T02:21:04.649Z,6.80
2022-11-14T02:23:35.167Z,6.70
2022-11-14T02:26:04.696Z,6.70
2022-11-14T02:28:34.211Z,6.70
2022-11-14T02:31:03.841Z,6.70
2022-11-14T02:33:33.301Z,6.70
2022-11-14T02:36:05.380Z,6.70
